createdAt,value
2023-05-24T00:01:20.014Z,38.38
2023-05-24T00:03:48.489Z,47.72
2023-05-24T00:06:17.092Z,41.60
2023-05-24T00:08:45.498Z,42.45
2023-05-24T00:11:14.301Z,50.85
2023-05-24T00:13:42.740Z,31.77
2023-05-24T00:16:11.395Z,41.03
2023-05-24T00:18:40.117Z,35.15
2023-05-24T00:21:09.399Z,42.25
2023-05-24T00:23:38.705Z,41.03
2023-05-24T00:26:07.556Z,35.03
2023-05-24T00:28:36.867Z,26.90
2023-05-24T00:31:05.437Z,28.55
2023-05-24T00:33:37.404Z,26.98
2023-05-24T00:38:34.205Z,29.02
2023-05-24T00:41:02.649Z,27.77
2023-05-24T00:43:31.266Z,26.02
2023-05-24T00:46:22.147Z,24.25
2023-05-24T00:48:51.647Z,31.20
2023-05-24T00:51:20.395Z,30.95
2023-05-24T00:53:50.617Z,29.60
2023-05-24T00:56:19.431Z,34.88
2023-05-24T00:58:48.759Z,35.53
2023-05-24T01:01:18.214Z,42.47
2023-05-24T01:03:47.044Z,32.70
2023-05-24T01:06:18.084Z,30.88
2023-05-24T01:09:17.824Z,40.17
2023-05-24T01:12:09.799Z,35.85
2023-05-24T01:15:02.764Z,37.95
2023-05-24T01:17:54.319Z,34.75
2023-05-24T01:20:25.401Z,33.17
2023-05-24T01:23:18.481Z,38.25
2023-05-24T01:26:04.105Z,30.42
2023-05-24T01:28:35.010Z,38.35
2023-05-24T01:31:04.851Z,35.55
2023-05-24T01:33:43.442Z,41.58
2023-05-24T01:36:12.276Z,28.45
2023-05-24T01:38:41.690Z,27.33
2023-05-24T01:41:36.996Z,33.00
2023-05-24T01:44:10.827Z,29.45
2023-05-24T01:46:40.147Z,32.95
2023-05-24T01:49:18.459Z,30.55
2023-05-24T01:51:54.633Z,27.85
2023-05-24T01:54:27.208Z,29.23
2023-05-24T01:56:58.164Z,23.40
2023-05-24T01:59:29.592Z,29.05
2023-05-24T02:01:58.671Z,33.38
2023-05-24T02:04:27.592Z,29.38
2023-05-24T02:06:56.063Z,34.25
2023-05-24T02:09:24.470Z,36.80
2023-05-24T02:11:53.668Z,33.58
2023-05-24T02:14:22.349Z,38.45
2023-05-24T02:16:51.102Z,39.67
2023-05-24T02:19:20.588Z,34.35
2023-05-24T02:21:48.929Z,30.23
2023-05-24T02:24:17.618Z,24.33
2023-05-24T02:26:46.138Z,28.35
2023-05-24T02:29:14.606Z,33.88
2023-05-24T02:31:43.163Z,39.03
2023-05-24T02:34:11.349Z,34.50
2023-05-24T02:36:39.820Z,36.65
2023-05-24T02:39:08.197Z,29.80
2023-05-24T02:41:36.718Z,66.40
2023-05-24T02:44:05.091Z,70.35
2023-05-24T02:46:33.585Z,85.95
2023-05-24T02:49:02.147Z,81.60
2023-05-24T02:51:30.561Z,73.88
2023-05-24T02:53:59.120Z,56.92
2023-05-24T02:56:27.462Z,72.50
2023-05-24T02:58:56.981Z,59.03
2023-05-24T03:01:25.575Z,54.85
2023-05-24T03:03:57.661Z,68.50
2023-05-24T03:06:27.721Z,51.60
2023-05-24T03:08:57.141Z,48.55
2023-05-24T03:11:26.833Z,58.15
2023-05-24T03:13:57.593Z,50.08
2023-05-24T03:16:26.075Z,44.08
2023-05-24T03:18:54.457Z,40.28
2023-05-24T03:21:23.096Z,36.67
2023-05-24T03:23:51.678Z,30.77
2023-05-24T03:26:20.162Z,24.35
2023-05-24T03:28:48.570Z,25.58
2023-05-24T03:31:16.911Z,24.10
2023-05-24T03:33:45.605Z,33.25
2023-05-24T03:36:14.266Z,20.60
2023-05-24T03:38:42.603Z,26.00
2023-05-24T03:41:11.068Z,32.25
2023-05-24T03:43:39.746Z,32.20
2023-05-24T03:46:13.535Z,27.67
2023-05-24T03:48:43.358Z,26.63
2023-05-24T03:51:11.771Z,28.63
2023-05-24T03:53:40.258Z,32.40
2023-05-24T03:56:08.503Z,24.63
2023-05-24T03:58:38.780Z,31.75
2023-05-24T04:01:07.486Z,28.95
2023-05-24T04:03:36.209Z,26.52
2023-05-24T04:06:05.766Z,26.50
2023-05-24T04:08:34.251Z,30.70
2023-05-24T04:11:02.758Z,34.60
2023-05-24T04:13:31.341Z,33.70
2023-05-24T04:15:59.844Z,28.20
2023-05-24T04:18:28.326Z,23.00
2023-05-24T04:20:56.841Z,32.50
2023-05-24T04:23:25.320Z,25.38
2023-05-24T04:25:53.744Z,30.38
2023-05-24T04:28:22.228Z,24.15
2023-05-24T04:30:51.737Z,23.52
2023-05-24T04:33:20.325Z,26.55
2023-05-24T04:35:48.754Z,18.48
2023-05-24T04:38:17.096Z,16.20
2023-05-24T04:40:45.708Z,20.90
2023-05-24T04:43:14.134Z,19.70
2023-05-24T04:45:42.529Z,20.95
2023-05-24T04:48:10.917Z,25.45
2023-05-24T04:50:39.447Z,20.48
2023-05-24T04:53:08.032Z,13.70
2023-05-24T04:55:36.435Z,18.98
2023-05-24T04:58:04.962Z,24.63
2023-05-24T05:00:33.377Z,21.90
2023-05-24T05:03:01.864Z,15.23
2023-05-24T05:05:30.267Z,19.17
2023-05-24T05:07:58.871Z,25.75
2023-05-24T05:10:27.432Z,19.27
2023-05-24T05:12:55.990Z,23.95
2023-05-24T05:15:25.299Z,29.05
2023-05-24T05:17:53.675Z,25.98
2023-05-24T05:20:23.546Z,22.90
2023-05-24T05:22:52.268Z,15.32
2023-05-24T05:25:21.069Z,15.48
2023-05-24T05:27:49.471Z,18.30
2023-05-24T05:30:18.582Z,14.55
2023-05-24T05:32:47.319Z,18.98
2023-05-24T05:35:15.757Z,26.52
2023-05-24T05:37:44.024Z,17.02
2023-05-24T05:40:12.974Z,21.20
2023-05-24T05:42:41.376Z,16.05
2023-05-24T05:45:09.964Z,22.40
2023-05-24T05:47:38.422Z,19.15
2023-05-24T05:50:07.723Z,15.75
2023-05-24T05:52:37.133Z,17.83
2023-05-24T05:55:06.137Z,19.13
2023-05-24T05:57:34.623Z,25.45
2023-05-24T06:00:03.339Z,21.73
2023-05-24T06:02:40.216Z,39.22
2023-05-24T06:05:09.875Z,24.73
2023-05-24T06:07:38.268Z,14.65
2023-05-24T06:10:07.398Z,25.48
2023-05-24T06:12:35.723Z,22.27
2023-05-24T06:15:04.272Z,39.45
2023-05-24T06:17:32.559Z,32.22
2023-05-24T06:20:01.344Z,28.98
2023-05-24T06:22:29.829Z,27.30
2023-05-24T06:24:58.296Z,35.28
2023-05-24T06:27:26.647Z,26.67
2023-05-24T06:29:55.076Z,27.95
2023-05-24T06:32:23.576Z,32.78
2023-05-24T06:34:52.092Z,33.92
2023-05-24T06:37:20.378Z,24.92
2023-05-24T06:39:48.807Z,22.80
2023-05-24T06:42:17.234Z,32.38
2023-05-24T06:44:47.647Z,33.85
2023-05-24T06:47:16.545Z,26.88
2023-05-24T06:49:45.263Z,22.45
2023-05-24T06:52:13.940Z,31.15
2023-05-24T06:54:42.739Z,27.83
2023-05-24T06:57:12.431Z,20.95
2023-05-24T06:59:41.417Z,16.13
2023-05-24T07:02:10.432Z,24.40
2023-05-24T07:04:39.319Z,26.88
2023-05-24T07:07:10.658Z,19.55
2023-05-24T07:09:40.836Z,27.63
2023-05-24T07:12:10.274Z,32.05
2023-05-24T07:14:39.383Z,30.83
2023-05-24T07:17:08.332Z,38.03
2023-05-24T07:19:36.878Z,32.53
2023-05-24T07:22:05.291Z,24.40
2023-05-24T07:24:33.744Z,24.08
2023-05-24T07:27:02.067Z,17.40
2023-05-24T07:29:30.642Z,15.68
2023-05-24T07:36:03.221Z,30.05
2023-05-24T07:38:31.942Z,26.02
2023-05-24T07:41:01.890Z,21.83
2023-05-24T07:43:30.679Z,25.73
2023-05-24T07:46:00.344Z,22.05
2023-05-24T07:48:28.991Z,34.35
2023-05-24T07:50:57.487Z,23.40
2023-05-24T07:53:25.932Z,21.27
2023-05-24T07:55:57.074Z,25.50
2023-05-24T07:58:25.506Z,30.30
2023-05-24T08:00:53.803Z,26.55
2023-05-24T08:03:22.463Z,21.10
2023-05-24T08:05:51.234Z,25.63
2023-05-24T08:08:19.511Z,24.67
2023-05-24T08:10:48.121Z,22.50
2023-05-24T08:13:16.582Z,23.08
2023-05-24T08:15:45.202Z,17.13
2023-05-24T08:18:14.785Z,21.80
2023-05-24T08:20:43.416Z,16.75
2023-05-24T08:23:11.923Z,16.58
2023-05-24T08:25:40.826Z,17.25
2023-05-24T08:28:09.483Z,18.80
2023-05-24T08:30:38.122Z,21.00
2023-05-24T08:33:06.584Z,20.52
2023-05-24T08:35:35.209Z,16.20
2023-05-24T08:38:03.564Z,13.57
2023-05-24T08:40:33.683Z,19.10
2023-05-24T08:43:03.324Z,17.55
2023-05-24T08:45:35.373Z,13.80
2023-05-24T08:48:07.050Z,18.80
2023-05-24T08:50:36.436Z,14.48
2023-05-24T08:53:08.938Z,12.32
2023-05-24T08:55:38.813Z,10.18
2023-05-24T08:58:07.889Z,15.00
2023-05-24T09:00:36.358Z,13.30
2023-05-24T09:03:07.259Z,16.85
2023-05-24T09:05:36.233Z,9.52
2023-05-24T09:08:05.524Z,13.43
2023-05-24T09:10:54.103Z,11.45
2023-05-24T09:13:24.793Z,18.40
2023-05-24T09:15:54.629Z,14.73
2023-05-24T09:18:24.378Z,16.45
2023-05-24T09:20:53.230Z,20.63
2023-05-24T09:23:23.504Z,17.13
2023-05-24T09:25:51.990Z,16.50
2023-05-24T09:28:21.005Z,10.70
2023-05-24T09:31:06.315Z,14.27
2023-05-24T09:33:36.956Z,10.43
2023-05-24T09:36:06.519Z,9.02
2023-05-24T09:38:35.018Z,8.80
2023-05-24T09:41:08.237Z,13.82
2023-05-24T09:43:49.405Z,14.13
2023-05-24T09:46:19.575Z,13.00
2023-05-24T09:49:12.857Z,18.27
2023-05-24T09:51:41.296Z,24.33
2023-05-24T09:54:13.292Z,15.43
2023-05-24T09:59:12.077Z,12.65
2023-05-24T10:01:40.715Z,16.15
2023-05-24T10:04:15.516Z,12.50
2023-05-24T10:06:44.922Z,15.73
2023-05-24T10:09:13.678Z,13.15
2023-05-24T10:11:43.050Z,10.60
2023-05-24T10:14:13.558Z,6.90
2023-05-24T10:16:46.814Z,18.90
2023-05-24T10:19:16.629Z,16.58
2023-05-24T10:21:46.173Z,17.88
2023-05-24T10:24:18.135Z,11.30
2023-05-24T10:29:28.820Z,15.77
2023-05-24T10:31:58.701Z,6.15
2023-05-24T10:34:28.324Z,13.88
2023-05-24T10:36:58.405Z,15.32
2023-05-24T10:39:27.288Z,11.23
2023-05-24T10:41:58.697Z,14.85
2023-05-24T10:44:30.545Z,9.05
2023-05-24T10:47:26.895Z,7.43
2023-05-24T10:49:58.799Z,10.98
2023-05-24T10:52:37.392Z,11.05
2023-05-24T10:55:08.696Z,12.27
2023-05-24T10:57:38.248Z,17.08
2023-05-24T11:00:33.949Z,8.70
2023-05-24T11:03:07.361Z,14.52
2023-05-24T11:05:48.829Z,22.58
2023-05-24T11:08:41.737Z,14.77
2023-05-24T11:13:46.977Z,11.02
2023-05-24T11:16:45.672Z,10.93
2023-05-24T11:19:22.071Z,14.48
2023-05-24T11:21:52.944Z,7.15
2023-05-24T11:24:22.599Z,11.48
2023-05-24T11:26:52.029Z,9.18
2023-05-24T11:29:20.762Z,14.48
2023-05-24T11:31:57.894Z,13.63
2023-05-24T11:34:26.791Z,25.95
2023-05-24T11:36:55.699Z,23.60
2023-05-24T11:39:24.134Z,21.77
2023-05-24T11:41:55.197Z,17.45
2023-05-24T11:44:23.731Z,13.80
2023-05-24T11:46:58.967Z,16.83
2023-05-24T11:49:27.930Z,18.15
2023-05-24T11:51:59.044Z,11.32
2023-05-24T11:54:30.453Z,19.83
2023-05-24T11:56:59.738Z,18.83
2023-05-24T11:59:29.658Z,12.80
2023-05-24T12:02:08.169Z,19.27
2023-05-24T12:04:37.780Z,17.85
2023-05-24T12:07:11.208Z,15.15
2023-05-24T12:09:39.734Z,21.05
2023-05-24T12:12:08.411Z,11.02
2023-05-24T12:14:57.174Z,13.88
2023-05-24T12:17:26.079Z,20.73
2023-05-24T12:19:54.597Z,10.60
2023-05-24T12:22:29.090Z,32.10
2023-05-24T12:25:00.579Z,16.33
2023-05-24T12:27:29.547Z,23.75
2023-05-24T12:30:06.505Z,11.35
2023-05-24T12:32:35.194Z,10.95
2023-05-24T12:35:05.523Z,28.17
2023-05-24T12:37:34.813Z,26.63
2023-05-24T12:40:03.608Z,31.05
2023-05-24T12:42:32.985Z,25.98
2023-05-24T12:45:01.777Z,18.70
2023-05-24T12:47:30.551Z,25.45
2023-05-24T12:49:59.414Z,21.85
2023-05-24T12:52:28.200Z,23.73
2023-05-24T12:54:56.642Z,19.58
2023-05-24T12:57:25.054Z,19.77
2023-05-24T12:59:53.754Z,24.58
2023-05-24T13:02:24.608Z,22.55
2023-05-24T13:04:56.261Z,36.55
2023-05-24T13:07:25.196Z,25.80
2023-05-24T13:09:53.574Z,20.70
2023-05-24T13:12:22.508Z,28.98
2023-05-24T13:14:52.919Z,21.63
2023-05-24T13:17:22.286Z,31.65
2023-05-24T13:19:50.784Z,26.85
2023-05-24T13:22:19.223Z,28.85
2023-05-24T13:24:47.783Z,23.55
2023-05-24T13:27:16.127Z,22.88
2023-05-24T13:29:59.167Z,15.95
2023-05-24T13:32:29.244Z,23.02
2023-05-24T13:34:58.310Z,19.05
2023-05-24T13:37:26.997Z,17.13
2023-05-24T13:39:55.367Z,19.67
2023-05-24T13:42:23.930Z,24.30
2023-05-24T13:44:52.270Z,24.98
2023-05-24T13:47:31.227Z,32.67
2023-05-24T13:50:08.147Z,28.75
2023-05-24T13:52:36.640Z,15.30
2023-05-24T13:55:05.736Z,45.50
2023-05-24T14:00:08.765Z,28.58
2023-05-24T14:02:38.198Z,29.05
2023-05-24T14:05:24.769Z,16.58
2023-05-24T14:07:56.318Z,26.80
2023-05-24T14:10:25.007Z,19.58
2023-05-24T14:13:07.787Z,28.52
2023-05-24T14:15:42.862Z,15.60
2023-05-24T14:18:11.402Z,32.15
2023-05-24T14:20:40.660Z,27.40
2023-05-24T14:23:10.444Z,27.65
2023-05-24T14:25:38.905Z,21.08
2023-05-24T14:28:07.583Z,27.63
2023-05-24T14:30:36.062Z,35.97
2023-05-24T14:33:04.777Z,29.60
2023-05-24T14:35:33.976Z,21.52
2023-05-24T14:38:02.430Z,10.40
2023-05-24T14:40:30.759Z,22.88
2023-05-24T14:42:59.262Z,26.08
2023-05-24T14:45:27.834Z,25.15
2023-05-24T14:47:56.487Z,23.52
2023-05-24T14:50:27.936Z,22.92
2023-05-24T14:52:56.560Z,18.55
2023-05-24T14:55:25.044Z,17.38
2023-05-24T14:57:53.498Z,13.70
2023-05-24T15:00:23.280Z,19.50
2023-05-24T15:02:53.333Z,17.67
2023-05-24T15:05:23.417Z,12.98
2023-05-24T15:07:51.808Z,20.38
2023-05-24T15:10:20.263Z,12.98
2023-05-24T15:12:48.886Z,18.75
2023-05-24T15:15:17.553Z,12.38
2023-05-24T15:17:46.796Z,13.77
2023-05-24T15:20:15.573Z,12.23
2023-05-24T15:22:47.017Z,23.45
2023-05-24T15:25:15.511Z,30.80
2023-05-24T15:27:44.020Z,49.25
2023-05-24T15:30:20.810Z,21.55
2023-05-24T15:32:49.358Z,22.25
2023-05-24T15:35:18.570Z,22.10
2023-05-24T15:37:47.143Z,23.40
2023-05-24T15:40:15.813Z,27.13
2023-05-24T15:42:44.286Z,18.77
2023-05-24T15:45:13.006Z,17.38
2023-05-24T15:47:41.879Z,18.75
2023-05-24T15:50:10.941Z,18.00
2023-05-24T15:52:42.345Z,21.90
2023-05-24T15:55:11.244Z,15.05
2023-05-24T15:57:39.823Z,22.27
2023-05-24T16:00:09.094Z,24.92
2023-05-24T16:02:43.276Z,43.70
2023-05-24T16:05:12.080Z,30.75
2023-05-24T16:07:40.464Z,24.67
2023-05-24T16:10:09.236Z,31.85
2023-05-24T16:12:37.668Z,26.80
2023-05-24T16:15:06.728Z,17.50
2023-05-24T16:17:35.273Z,15.38
2023-05-24T16:20:04.138Z,14.07
2023-05-24T16:22:35.247Z,21.65
2023-05-24T16:25:03.840Z,15.13
2023-05-24T16:27:32.456Z,27.20
2023-05-24T16:30:00.899Z,19.08
2023-05-24T16:32:29.470Z,14.32
2023-05-24T16:34:58.249Z,21.13
2023-05-24T16:37:26.714Z,14.48
2023-05-24T16:39:55.347Z,22.40
2023-05-24T16:42:23.865Z,28.55
2023-05-24T16:44:52.128Z,14.13
2023-05-24T16:47:20.900Z,24.33
2023-05-24T16:49:50.508Z,27.92
2023-05-24T16:52:19.523Z,32.20
2023-05-24T16:54:47.773Z,28.55
2023-05-24T16:57:16.418Z,21.88
2023-05-24T16:59:44.879Z,25.73
2023-05-24T17:02:13.311Z,18.75
2023-05-24T17:04:41.738Z,29.05
2023-05-24T17:07:10.122Z,25.23
2023-05-24T17:09:38.652Z,26.13
2023-05-24T17:12:07.177Z,26.25
2023-05-24T17:14:35.574Z,11.95
2023-05-24T17:17:05.289Z,15.35
2023-05-24T17:19:35.424Z,35.42
2023-05-24T17:22:06.284Z,37.83
2023-05-24T17:24:37.863Z,73.90
2023-05-24T17:27:06.542Z,34.78
2023-05-24T17:29:35.274Z,30.25
2023-05-24T17:32:04.319Z,28.25
2023-05-24T17:34:33.202Z,28.17
2023-05-24T17:37:01.819Z,44.95
2023-05-24T17:39:30.152Z,32.83
2023-05-24T17:41:58.736Z,34.20
2023-05-24T17:44:27.193Z,23.38
2023-05-24T17:46:55.753Z,25.38
2023-05-24T17:49:33.205Z,48.65
2023-05-24T17:52:01.904Z,25.40
2023-05-24T17:54:30.303Z,34.90
2023-05-24T17:56:58.712Z,31.58
2023-05-24T17:59:27.393Z,33.88
2023-05-24T18:01:55.884Z,35.90
2023-05-24T18:04:24.378Z,39.65
2023-05-24T18:06:52.796Z,29.17
2023-05-24T18:09:21.940Z,32.70
2023-05-24T18:11:50.160Z,32.47
2023-05-24T18:14:21.744Z,39.75
2023-05-24T18:16:50.329Z,34.10
2023-05-24T18:19:18.882Z,44.17
2023-05-24T18:21:47.191Z,46.83
2023-05-24T18:24:15.938Z,36.30
2023-05-24T18:26:47.021Z,48.15
2023-05-24T18:29:15.749Z,31.00
2023-05-24T18:31:47.381Z,23.85
2023-05-24T18:34:16.335Z,29.83
2023-05-24T18:36:44.996Z,39.60
2023-05-24T18:39:13.655Z,32.78
2023-05-24T18:41:42.188Z,52.28
2023-05-24T18:44:10.832Z,31.45
2023-05-24T18:46:39.307Z,40.67
2023-05-24T18:49:07.960Z,31.95
2023-05-24T18:51:36.322Z,25.17
2023-05-24T18:54:05.240Z,45.45
2023-05-24T18:56:33.570Z,32.20
2023-05-24T18:59:03.573Z,34.65
2023-05-24T19:01:32.858Z,33.83
2023-05-24T19:04:01.640Z,38.42
2023-05-24T19:06:30.212Z,42.33
2023-05-24T19:08:58.928Z,34.92
2023-05-24T19:11:28.346Z,32.67
2023-05-24T19:13:56.800Z,39.45
2023-05-24T19:16:25.693Z,40.72
2023-05-24T19:18:54.154Z,33.22
2023-05-24T19:21:22.771Z,37.22
2023-05-24T19:23:51.185Z,28.95
2023-05-24T19:26:19.908Z,35.88
2023-05-24T19:28:57.791Z,45.75
2023-05-24T19:31:27.195Z,39.33
2023-05-24T19:34:00.561Z,35.65
2023-05-24T19:36:30.573Z,30.23
2023-05-24T19:38:59.358Z,45.85
2023-05-24T19:41:27.831Z,36.92
2023-05-24T19:43:56.962Z,32.40
2023-05-24T19:46:26.550Z,41.53
2023-05-24T19:48:55.072Z,39.22
2023-05-24T19:51:26.445Z,39.50
2023-05-24T19:53:54.877Z,39.55
2023-05-24T19:56:23.579Z,44.08
2023-05-24T19:58:52.234Z,36.70
2023-05-24T20:01:20.657Z,40.70
2023-05-24T20:03:49.491Z,48.67
2023-05-24T20:06:18.594Z,51.17
2023-05-24T20:08:47.444Z,37.17
2023-05-24T20:11:15.836Z,39.65
2023-05-24T20:13:44.369Z,36.85
2023-05-24T20:16:13.135Z,33.97
2023-05-24T20:18:41.500Z,34.17
2023-05-24T20:21:10.201Z,34.20
2023-05-24T20:23:51.119Z,47.90
2023-05-24T20:26:19.854Z,40.05
2023-05-24T20:28:48.364Z,32.60
2023-05-24T20:31:17.508Z,34.80
2023-05-24T20:33:46.229Z,31.02
2023-05-24T20:36:14.551Z,34.20
2023-05-24T20:38:43.175Z,27.40
2023-05-24T20:41:12.001Z,40.15
2023-05-24T20:43:40.490Z,29.42
2023-05-24T20:46:09.279Z,28.90
2023-05-24T20:48:37.772Z,29.20
2023-05-24T20:51:07.244Z,36.47
2023-05-24T20:53:35.754Z,41.65
2023-05-24T20:56:04.286Z,50.38
2023-05-24T20:58:32.793Z,36.30
2023-05-24T21:01:01.092Z,23.13
2023-05-24T21:03:29.739Z,51.53
2023-05-24T21:05:58.293Z,60.47
2023-05-24T21:08:26.699Z,58.97
2023-05-24T21:10:55.134Z,103.38
2023-05-24T21:13:23.693Z,90.65
2023-05-24T21:15:52.603Z,59.53
2023-05-24T21:18:20.923Z,53.70
2023-05-24T21:20:49.348Z,16.73
2023-05-24T21:23:18.170Z,34.30
2023-05-24T21:25:46.540Z,68.03
2023-05-24T21:28:15.093Z,67.35
2023-05-24T21:30:43.764Z,86.70
2023-05-24T21:33:12.285Z,116.13
2023-05-24T21:35:40.902Z,90.38
2023-05-24T21:38:09.737Z,52.75
2023-05-24T21:40:44.282Z,30.58
2023-05-24T21:43:12.889Z,18.95
2023-05-24T21:45:44.304Z,20.45
2023-05-24T21:48:13.104Z,18.67
2023-05-24T21:50:41.459Z,24.77
2023-05-24T21:53:10.065Z,22.00
2023-05-24T21:55:38.484Z,25.40
2023-05-24T21:58:07.248Z,20.70
2023-05-24T22:00:35.641Z,28.05
2023-05-24T22:03:04.166Z,25.17
2023-05-24T22:05:32.904Z,28.80
2023-05-24T22:08:01.372Z,27.85
2023-05-24T22:10:29.798Z,42.90
2023-05-24T22:12:58.147Z,66.05
2023-05-24T22:15:26.609Z,53.20
2023-05-24T22:17:55.325Z,41.80
2023-05-24T22:20:23.714Z,83.47
2023-05-24T22:22:52.384Z,84.97
2023-05-24T22:25:21.103Z,80.60
2023-05-24T22:27:50.062Z,66.78
2023-05-24T22:30:18.694Z,66.15
2023-05-24T22:32:47.397Z,72.03
2023-05-24T22:35:16.110Z,83.15
2023-05-24T22:37:44.546Z,105.72
2023-05-24T22:40:13.693Z,57.88
2023-05-24T22:42:42.217Z,44.80
2023-05-24T22:45:11.205Z,36.55
2023-05-24T22:47:42.493Z,40.28
2023-05-24T22:50:11.125Z,69.90
2023-05-24T22:52:39.561Z,71.38
2023-05-24T22:55:08.082Z,50.17
2023-05-24T22:57:36.598Z,36.55
2023-05-24T23:00:05.789Z,33.72
2023-05-24T23:02:34.108Z,30.90
2023-05-24T23:05:02.844Z,44.53
2023-05-24T23:07:31.302Z,29.67
2023-05-24T23:09:59.669Z,24.67
2023-05-24T23:12:28.028Z,27.63
2023-05-24T23:14:56.900Z,21.50
2023-05-24T23:17:25.340Z,20.92
2023-05-24T23:19:53.962Z,27.67
2023-05-24T23:22:22.606Z,23.38
2023-05-24T23:24:51.189Z,27.00
2023-05-24T23:27:20.027Z,29.98
2023-05-24T23:29:48.440Z,34.83
2023-05-24T23:32:16.654Z,36.75
2023-05-24T23:34:45.101Z,48.28
2023-05-24T23:37:13.771Z,45.10
2023-05-24T23:39:42.087Z,73.78
2023-05-24T23:42:10.398Z,72.63
2023-05-24T23:44:38.945Z,41.22
2023-05-24T23:47:07.494Z,40.50
2023-05-24T23:49:36.027Z,33.55
2023-05-24T23:52:04.706Z,20.77
2023-05-24T23:57:03.933Z,25.70
2023-05-24T23:59:32.263Z,31.23
